Time;durP1;ratioP1;P1;durP2;ratioP2;P2;SDS_P1;SDS_P2;PMS_P1;PMS_P2;Temp;Humidity;BMP_temperature;BMP_pressure;BME280_temperature;BME280_humidity;BME280_pressure;Samples;Min_cycle;Max_cycle;Signal;HPM_P1;HPM_P2
2021/03/06 00:00:53;;;;;;;16.95;4.70;;;;;;;-143.98;100.00;68091.63;5010694;28;20327;-84
2021/03/06 00:03:21;;;;;;;10.13;3.60;;;;;;;-143.98;100.00;68091.63;5028011;28;20060;-84
2021/03/06 00:05:47;;;;;;;10.43;3.58;;;;;;;-143.98;100.00;68091.63;5027730;28;20057;-82
2021/03/06 00:08:23;;;;;;;11.43;4.10;;;;;;;-143.98;100.00;68091.63;5023415;28;20111;-82
2021/03/06 00:10:53;;;;;;;12.20;3.72;;;;;;;-143.98;100.00;68091.63;5023170;28;20054;-82
2021/03/06 00:13:24;;;;;;;18.83;3.53;;;;;;;-143.98;100.00;68091.63;4991369;28;20118;-82
2021/03/06 00:15:53;;;;;;;10.35;3.80;;;;;;;-143.98;100.00;68091.63;5023690;28;20294;-81
2021/03/06 00:18:22;;;;;;;11.55;4.32;;;;;;;-143.98;100.00;68091.63;4991870;28;20390;-81
2021/03/06 00:20:48;;;;;;;17.38;4.65;;;;;;;-143.98;100.00;68091.63;4991578;28;20058;-81
2021/03/06 00:23:18;;;;;;;12.35;4.40;;;;;;;-143.98;100.00;68091.63;5022927;28;20388;-81
2021/03/06 00:25:45;;;;;;;21.52;4.60;;;;;;;-143.98;100.00;68091.63;4995468;28;20065;-82
2021/03/06 00:28:12;;;;;;;20.67;4.47;;;;;;;-143.98;100.00;68091.63;5009258;28;20062;-81
2021/03/06 00:30:38;;;;;;;16.10;4.60;;;;;;;-143.98;100.00;68091.63;5007936;28;20054;-81
2021/03/06 00:33:05;;;;;;;15.32;4.40;;;;;;;-143.98;100.00;68091.63;5009228;28;20088;-80
2021/03/06 00:35:35;;;;;;;18.73;3.92;;;;;;;-143.98;100.00;68091.63;5008918;28;20055;-81
2021/03/06 00:38:02;;;;;;;9.07;3.60;;;;;;;-143.98;100.00;68091.63;5026043;28;20054;-81
2021/03/06 00:40:29;;;;;;;16.40;4.35;;;;;;;-143.98;100.00;68091.63;4991946;28;20322;-81
2021/03/06 00:42:56;;;;;;;19.08;4.65;;;;;;;-143.98;100.00;68091.63;5024401;28;20064;-81
2021/03/06 00:45:25;;;;;;;14.23;4.22;;;;;;;-143.98;100.00;68091.63;5010263;28;20149;-81
2021/03/06 00:47:52;;;;;;;11.45;4.68;;;;;;;-143.98;100.00;68091.63;5013886;28;20069;-80
2021/03/06 00:50:28;;;;;;;17.92;4.35;;;;;;;-143.98;100.00;68091.63;5007195;28;20065;-80
2021/03/06 00:52:54;;;;;;;14.25;4.25;;;;;;;-143.98;100.00;68091.63;5022029;28;20105;-80
2021/03/06 00:55:20;;;;;;;14.80;5.07;;;;;;;-143.98;100.00;68091.63;5015757;28;20073;-81
2021/03/06 00:58:02;;;;;;;13.43;4.20;;;;;;;-143.98;100.00;68091.63;5011394;28;20050;-81
2021/03/06 01:00:28;;;;;;;18.10;4.20;;;;;;;-143.98;100.00;68091.63;5010906;28;20070;-81
2021/03/06 01:02:56;;;;;;;12.82;4.47;;;;;;;-143.98;100.00;68091.63;5010084;28;20140;-81
2021/03/06 01:05:26;;;;;;;9.98;4.47;;;;;;;-143.98;100.00;68091.63;5025098;28;20047;-81
2021/03/06 01:07:52;;;;;;;14.35;4.78;;;;;;;-143.98;100.00;68091.63;4976990;28;20141;-81
2021/03/06 01:10:24;;;;;;;13.07;5.18;;;;;;;-143.98;100.00;68091.63;5029634;28;20421;-81
2021/03/06 01:12:51;;;;;;;14.50;4.88;;;;;;;-143.98;100.00;68091.63;4999506;28;20058;-80
2021/03/06 01:15:17;;;;;;;11.57;4.55;;;;;;;-143.98;100.00;68091.63;5039017;28;20170;-80
2021/03/06 01:17:43;;;;;;;13.07;5.20;;;;;;;-143.98;100.00;68091.63;5018011;28;20061;-80
2021/03/06 01:20:13;;;;;;;9.30;4.65;;;;;;;-143.98;100.00;68091.63;5010947;28;20153;-80
2021/03/06 01:22:40;;;;;;;17.17;5.13;;;;;;;-143.98;100.00;68091.63;5039378;28;20243;-80
2021/03/06 01:25:07;;;;;;;14.07;5.57;;;;;;;-143.98;100.00;68091.63;5027519;28;20135;-80
2021/03/06 01:27:33;;;;;;;13.10;4.93;;;;;;;-143.98;100.00;68091.63;5045716;28;20054;-80
2021/03/06 01:30:00;;;;;;;14.55;4.35;;;;;;;-143.98;100.00;68091.63;5028934;28;20069;-80
2021/03/06 01:32:26;;;;;;;12.52;4.90;;;;;;;-143.98;100.00;68091.63;5032717;28;20058;-80
2021/03/06 01:34:52;;;;;;;17.92;4.88;;;;;;;-143.98;100.00;68091.63;5024068;28;20090;-80
2021/03/06 01:37:19;;;;;;;17.80;4.22;;;;;;;-143.98;100.00;68091.63;5012961;28;20151;-80
2021/03/06 01:39:45;;;;;;;22.80;4.50;;;;;;;-143.98;100.00;68091.63;5028998;28;20034;-80
2021/03/06 01:42:11;;;;;;;10.73;4.40;;;;;;;-143.98;100.00;68091.63;5015005;28;20289;-80
2021/03/06 01:44:38;;;;;;;15.00;4.32;;;;;;;-143.98;100.00;68091.63;5030365;28;20112;-81
2021/03/06 01:47:05;;;;;;;18.98;4.47;;;;;;;-143.98;100.00;68091.63;5028881;28;20054;-80
2021/03/06 01:49:32;;;;;;;12.55;4.72;;;;;;;-143.98;100.00;68091.63;4994925;28;20115;-80
2021/03/06 01:51:59;;;;;;;14.18;4.40;;;;;;;-143.98;100.00;68091.63;5027029;28;20050;-80
2021/03/06 01:54:28;;;;;;;17.27;4.28;;;;;;;-143.98;100.00;68091.63;5009511;28;20163;-80
2021/03/06 01:56:55;;;;;;;17.23;4.13;;;;;;;-143.98;100.00;68091.63;5025218;28;20053;-80
2021/03/06 01:59:23;;;;;;;15.50;4.30;;;;;;;-143.98;100.00;68091.63;4994462;28;20062;-80
2021/03/06 02:01:50;;;;;;;16.70;4.75;;;;;;;-143.98;100.00;68091.63;4996411;28;20262;-80
2021/03/06 02:04:16;;;;;;;8.20;4.43;;;;;;;-143.98;100.00;68091.63;5002129;28;20072;-79
2021/03/06 02:06:46;;;;;;;16.23;4.30;;;;;;;-143.98;100.00;68091.63;5015858;28;20061;-79
2021/03/06 02:09:12;;;;;;;17.58;4.15;;;;;;;-143.98;100.00;68091.63;5034364;28;20050;-82
2021/03/06 02:12:14;;;;;;;11.00;4.80;;;;;;;-143.98;100.00;68091.63;5032539;28;20078;-82
2021/03/06 02:15:05;;;;;;;12.68;4.63;;;;;;;-143.98;100.00;68091.63;5031354;28;20153;-82
2021/03/06 02:17:44;;;;;;;11.50;4.38;;;;;;;-143.98;100.00;68091.63;4995034;28;20099;-80
2021/03/06 02:20:32;;;;;;;12.55;4.70;;;;;;;-143.98;100.00;68091.63;5027110;28;20061;-80
2021/03/06 02:23:09;;;;;;;15.02;4.55;;;;;;;-143.98;100.00;68091.63;5026747;28;20336;-80
2021/03/06 02:26:09;;;;;;;14.88;4.88;;;;;;;-143.98;100.00;68091.63;5010564;28;20441;-80
2021/03/06 02:28:41;;;;;;;17.30;4.18;;;;;;;-143.98;100.00;68091.63;4995511;28;20050;-79
2021/03/06 02:31:09;;;;;;;15.18;4.47;;;;;;;-143.98;100.00;68091.63;5025788;28;20104;-79
2021/03/06 02:33:40;;;;;;;19.80;4.30;;;;;;;-143.98;100.00;68091.63;4977155;28;20116;-80
2021/03/06 02:36:16;;;;;;;9.75;3.85;;;;;;;-143.98;100.00;68091.63;5009371;28;20054;-79
2021/03/06 02:38:44;;;;;;;14.90;3.42;;;;;;;-143.98;100.00;68091.63;4994985;28;20065;-80
2021/03/06 02:41:13;;;;;;;10.90;3.88;;;;;;;-143.98;100.00;68091.63;5010604;28;20054;-79
2021/03/06 02:43:43;;;;;;;8.75;3.30;;;;;;;-143.98;100.00;68091.63;5026278;28;20119;-80
2021/03/06 02:46:10;;;;;;;14.00;3.95;;;;;;;-143.98;100.00;68091.63;5025791;28;20055;-80
2021/03/06 02:48:36;;;;;;;18.23;3.90;;;;;;;-143.98;100.00;68091.63;5026373;28;20169;-80
2021/03/06 02:51:03;;;;;;;17.77;4.18;;;;;;;-143.98;100.00;68091.63;4998727;28;20038;-80
2021/03/06 02:53:33;;;;;;;12.30;3.40;;;;;;;-143.98;100.00;68091.63;5042759;28;20045;-80
2021/03/06 02:55:59;;;;;;;9.73;3.53;;;;;;;-143.98;100.00;68091.63;5024325;28;20054;-80
2021/03/06 02:58:38;;;;;;;14.30;3.58;;;;;;;-143.98;100.00;68091.63;5028186;28;20133;-80
2021/03/06 03:01:14;;;;;;;13.40;3.72;;;;;;;-143.98;100.00;68091.63;4995543;28;20135;-80
2021/03/06 03:03:49;;;;;;;9.82;4.50;;;;;;;-143.98;100.00;68091.63;4998258;28;20588;-80
2021/03/06 03:06:21;;;;;;;11.23;2.90;;;;;;;-143.98;100.00;68091.63;5041926;28;20038;-80
2021/03/06 03:09:07;;;;;;;11.90;3.35;;;;;;;-143.98;100.00;68091.63;5005540;28;20049;-80
2021/03/06 03:11:59;;;;;;;15.38;3.53;;;;;;;-143.98;100.00;68091.63;4996669;28;20074;-79
2021/03/06 03:14:31;;;;;;;19.23;3.50;;;;;;;-143.98;100.00;68091.63;4980000;28;20064;-82
2021/03/06 03:17:28;;;;;;;12.52;3.10;;;;;;;-143.98;100.00;68091.63;4996227;28;20380;-82
2021/03/06 03:20:14;;;;;;;13.15;3.10;;;;;;;-143.98;100.00;68091.63;4983984;28;20089;-80
2021/03/06 03:22:43;;;;;;;9.25;3.10;;;;;;;-143.98;100.00;68091.63;4996519;28;20680;-80
2021/03/06 03:25:11;;;;;;;11.30;3.35;;;;;;;-143.98;100.00;68091.63;5028652;28;20060;-82
2021/03/06 03:27:38;;;;;;;10.10;4.30;;;;;;;-143.98;100.00;68091.63;4996227;28;20055;-82
2021/03/06 03:30:15;;;;;;;8.00;2.97;;;;;;;-143.98;100.00;68091.63;5028759;28;20145;-82
2021/03/06 03:32:44;;;;;;;13.55;3.75;;;;;;;-143.98;100.00;68091.63;5026937;28;20133;-80
2021/03/06 03:35:15;;;;;;;7.18;3.63;;;;;;;-143.98;100.00;68091.63;5010133;28;20054;-80
2021/03/06 03:37:42;;;;;;;15.10;3.10;;;;;;;-143.98;100.00;68091.63;4994692;28;20092;-82
2021/03/06 03:40:12;;;;;;;16.20;3.92;;;;;;;-143.98;100.00;68091.63;5027478;28;20329;-80
2021/03/06 03:42:38;;;;;;;15.65;3.92;;;;;;;-143.98;100.00;68091.63;5028035;28;20054;-80
2021/03/06 03:45:10;;;;;;;7.07;3.15;;;;;;;-143.98;100.00;68091.63;5027570;28;20054;-80
2021/03/06 03:47:38;;;;;;;10.32;3.22;;;;;;;-143.98;100.00;68091.63;5028349;28;20062;-80
2021/03/06 03:50:12;;;;;;;10.40;3.65;;;;;;;-143.98;100.00;68091.63;4995170;28;20165;-80
2021/03/06 03:52:43;;;;;;;21.00;3.67;;;;;;;-143.98;100.00;68091.63;4978968;28;20054;-80
2021/03/06 03:55:16;;;;;;;11.45;3.22;;;;;;;-143.98;100.00;68091.63;5011220;28;20050;-81
2021/03/06 03:57:48;;;;;;;12.65;2.92;;;;;;;-143.98;100.00;68091.63;5027964;28;20345;-81
2021/03/06 04:00:17;;;;;;;11.68;3.40;;;;;;;-143.98;100.00;68091.63;4978936;28;20054;-81
2021/03/06 04:02:45;;;;;;;11.75;3.47;;;;;;;-143.98;100.00;68091.63;5028746;28;20050;-81
2021/03/06 04:05:12;;;;;;;8.27;3.30;;;;;;;-143.98;100.00;68091.63;5033023;28;20055;-81
2021/03/06 04:07:49;;;;;;;13.50;3.42;;;;;;;-143.98;100.00;68091.63;5035150;28;20059;-82
2021/03/06 04:10:24;;;;;;;8.52;2.95;;;;;;;-143.98;100.00;68091.63;5005819;28;20061;-81
2021/03/06 04:12:51;;;;;;;11.02;3.67;;;;;;;-143.98;100.00;68091.63;5008627;28;20038;-81
2021/03/06 04:15:22;;;;;;;18.42;3.70;;;;;;;-143.98;100.00;68091.63;5009800;28;20046;-82
2021/03/06 04:17:49;;;;;;;12.05;3.38;;;;;;;-143.98;100.00;68091.63;5009847;28;20042;-81
2021/03/06 04:20:18;;;;;;;11.57;3.30;;;;;;;-143.98;100.00;68091.63;5002962;28;20140;-82
2021/03/06 04:22:45;;;;;;;13.57;3.58;;;;;;;-143.98;100.00;68091.63;4994372;28;20413;-82
2021/03/06 04:25:11;;;;;;;13.90;3.90;;;;;;;-143.98;100.00;68091.63;4992473;28;20058;-81
2021/03/06 04:27:41;;;;;;;18.27;3.40;;;;;;;-143.98;100.00;68091.63;4991759;28;20245;-82
2021/03/06 04:30:08;;;;;;;17.48;3.50;;;;;;;-143.98;100.00;68091.63;4992582;28;20118;-82
2021/03/06 04:32:36;;;;;;;8.70;3.22;;;;;;;-143.98;100.00;68091.63;5026075;28;20234;-82
2021/03/06 04:35:04;;;;;;;19.15;3.45;;;;;;;-143.98;100.00;68091.63;5008821;28;20061;-82
2021/03/06 04:37:30;;;;;;;6.30;2.80;;;;;;;-143.98;100.00;68091.63;5009187;28;20062;-82
2021/03/06 04:39:58;;;;;;;18.23;3.35;;;;;;;-143.98;100.00;68091.63;5007650;28;20363;-82
2021/03/06 04:42:29;;;;;;;7.15;2.95;;;;;;;-143.98;100.00;68091.63;5007828;28;20103;-82
2021/03/06 04:44:55;;;;;;;7.25;3.10;;;;;;;-143.98;100.00;68091.63;5027735;28;20144;-82
2021/03/06 04:47:21;;;;;;;10.80;3.63;;;;;;;-143.98;100.00;68091.63;5026315;28;20203;-81
2021/03/06 04:49:51;;;;;;;13.30;3.17;;;;;;;-143.98;100.00;68091.63;5028248;28;20081;-81
2021/03/06 04:52:23;;;;;;;17.45;3.92;;;;;;;-143.98;100.00;68091.63;5010518;28;20091;-82
2021/03/06 04:54:50;;;;;;;13.38;4.15;;;;;;;-143.98;100.00;68091.63;4994714;28;20188;-83
2021/03/06 04:57:16;;;;;;;12.10;3.63;;;;;;;-143.98;100.00;68091.63;5011458;28;20058;-83
2021/03/06 04:59:46;;;;;;;13.55;3.70;;;;;;;-143.98;100.00;68091.63;5017358;28;20085;-84
2021/03/06 05:02:12;;;;;;;9.27;3.10;;;;;;;-143.98;100.00;68091.63;5008787;28;20068;-85
2021/03/06 05:04:39;;;;;;;16.10;3.85;;;;;;;-143.98;100.00;68091.63;5041657;28;20061;-85
2021/03/06 05:07:05;;;;;;;10.50;3.38;;;;;;;-143.98;100.00;68091.63;5041278;28;20046;-85
2021/03/06 05:09:34;;;;;;;13.63;4.03;;;;;;;-143.98;100.00;68091.63;5024512;28;20288;-85
2021/03/06 05:12:00;;;;;;;64.47;7.30;;;;;;;-143.98;100.00;68091.63;5019925;28;20561;-85
2021/03/06 05:14:27;;;;;;;15.80;4.00;;;;;;;-143.98;100.00;68091.63;5015339;28;20054;-85
2021/03/06 05:16:53;;;;;;;15.35;4.18;;;;;;;-143.98;100.00;68091.63;5030247;28;20054;-85
2021/03/06 05:19:25;;;;;;;18.08;3.70;;;;;;;-143.98;100.00;68091.63;5013094;28;20088;-85
2021/03/06 05:21:51;;;;;;;15.85;4.45;;;;;;;-143.98;100.00;68091.63;4999776;28;20133;-85
2021/03/06 05:24:17;;;;;;;8.85;3.08;;;;;;;-143.98;100.00;68091.63;5030995;28;20082;-85
2021/03/06 05:26:43;;;;;;;7.60;3.70;;;;;;;-143.98;100.00;68091.63;5014038;28;20561;-85
2021/03/06 05:29:16;;;;;;;8.55;3.35;;;;;;;-143.98;100.00;68091.63;5029479;28;20071;-85
2021/03/06 05:31:42;;;;;;;11.85;3.60;;;;;;;-143.98;100.00;68091.63;4994966;28;20046;-85
2021/03/06 05:34:09;;;;;;;9.98;2.78;;;;;;;-143.98;100.00;68091.63;5003916;28;20220;-85
2021/03/06 05:36:35;;;;;;;6.70;3.22;;;;;;;-143.98;100.00;68091.63;5042472;28;20062;-85
2021/03/06 05:39:01;;;;;;;8.35;3.35;;;;;;;-143.98;100.00;68091.63;5025714;28;20046;-85
2021/03/06 05:41:35;;;;;;;11.48;3.95;;;;;;;-143.98;100.00;68091.63;5033043;28;20054;-85
2021/03/06 05:44:02;;;;;;;14.88;3.65;;;;;;;-143.98;100.00;68091.63;4998657;28;20050;-85
2021/03/06 05:46:29;;;;;;;7.95;3.25;;;;;;;-143.98;100.00;68091.63;5013478;28;20089;-85
2021/03/06 05:48:57;;;;;;;11.70;3.55;;;;;;;-143.98;100.00;68091.63;4995548;28;20501;-85
2021/03/06 05:51:27;;;;;;;14.00;4.20;;;;;;;-143.98;100.00;68091.63;5028221;28;20058;-85
2021/03/06 05:53:53;;;;;;;13.48;4.00;;;;;;;-143.98;100.00;68091.63;4979601;28;20137;-85
2021/03/06 05:56:20;;;;;;;12.10;3.92;;;;;;;-143.98;100.00;68091.63;5028143;28;20104;-85
2021/03/06 05:58:48;;;;;;;14.95;4.50;;;;;;;-143.98;100.00;68091.63;4978738;28;20365;-85
2021/03/06 06:01:21;;;;;;;13.98;4.00;;;;;;;-143.98;100.00;68091.63;5010780;28;20058;-85
2021/03/06 06:03:47;;;;;;;15.95;4.43;;;;;;;-143.98;100.00;68091.63;5010683;28;20070;-85
2021/03/06 06:06:14;;;;;;;8.43;3.95;;;;;;;-143.98;100.00;68091.63;5025913;28;20107;-84
2021/03/06 06:08:46;;;;;;;9.57;3.80;;;;;;;-143.98;100.00;68091.63;5010550;28;20054;-84
2021/03/06 06:11:12;;;;;;;11.50;3.90;;;;;;;-143.98;100.00;68091.63;5010607;28;20316;-85
2021/03/06 06:13:38;;;;;;;12.27;3.90;;;;;;;-143.98;100.00;68091.63;5027183;28;20082;-85
2021/03/06 06:16:05;;;;;;;12.52;3.42;;;;;;;-143.98;100.00;68091.63;5025642;28;20050;-84
2021/03/06 06:18:34;;;;;;;11.38;3.88;;;;;;;-143.98;100.00;68091.63;5010010;28;20137;-85
2021/03/06 06:21:06;;;;;;;11.27;3.28;;;;;;;-143.98;100.00;68091.63;4994339;28;20082;-85
2021/03/06 06:23:33;;;;;;;11.52;3.65;;;;;;;-143.98;100.00;68091.63;4994795;28;20178;-85
2021/03/06 06:26:10;;;;;;;12.85;3.15;;;;;;;-143.98;100.00;68091.63;5040964;28;20046;-84
2021/03/06 06:28:48;;;;;;;10.32;3.13;;;;;;;-143.98;100.00;68091.63;5042667;28;20034;-85
2021/03/06 06:31:17;;;;;;;12.30;3.53;;;;;;;-143.98;100.00;68091.63;4999824;28;20046;-85
2021/03/06 06:33:43;;;;;;;11.77;2.95;;;;;;;-143.98;100.00;68091.63;5011351;28;20057;-84
2021/03/06 06:36:38;;;;;;;10.15;3.40;;;;;;;-143.98;100.00;68091.63;5011459;28;20046;-85
2021/03/06 06:39:06;;;;;;;6.53;2.88;;;;;;;-143.98;100.00;68091.63;5024595;28;20077;-85
2021/03/06 06:41:57;;;;;;;10.60;3.50;;;;;;;-143.98;100.00;68091.63;5019352;28;20426;-85
2021/03/06 06:44:24;;;;;;;10.85;2.90;;;;;;;-143.98;100.00;68091.63;4995239;28;20527;-84
2021/03/06 06:46:53;;;;;;;9.20;3.15;;;;;;;-143.98;100.00;68091.63;4976789;28;20050;-85
2021/03/06 06:49:20;;;;;;;13.38;3.20;;;;;;;-143.98;100.00;68091.63;5009158;28;20065;-84
2021/03/06 06:51:57;;;;;;;8.13;2.63;;;;;;;-143.98;100.00;68091.63;5004786;28;20240;-84
2021/03/06 06:54:24;;;;;;;7.85;3.00;;;;;;;-143.98;100.00;68091.63;5008403;28;20035;-84
2021/03/06 06:56:50;;;;;;;10.70;3.22;;;;;;;-143.98;100.00;68091.63;4987068;28;20066;-85
2021/03/06 06:59:18;;;;;;;7.47;3.03;;;;;;;-143.98;100.00;68091.63;4982086;28;20059;-85
2021/03/06 07:01:45;;;;;;;11.65;2.65;;;;;;;-143.98;100.00;68091.63;5006846;28;20111;-85
2021/03/06 07:04:12;;;;;;;11.07;3.42;;;;;;;-143.98;100.00;68091.63;5009139;28;20080;-84
2021/03/06 07:06:43;;;;;;;5.55;2.50;;;;;;;-143.98;100.00;68091.63;5024635;28;20047;-84
2021/03/06 07:09:12;;;;;;;14.05;3.55;;;;;;;-143.98;100.00;68091.63;5007907;28;20076;-84
2021/03/06 07:11:42;;;;;;;6.38;2.58;;;;;;;-143.98;100.00;68091.63;4993883;28;20062;-83
2021/03/06 07:14:09;;;;;;;12.07;3.40;;;;;;;-143.98;100.00;68091.63;4992888;28;20081;-84
2021/03/06 07:17:03;;;;;;;8.90;2.90;;;;;;;-143.98;100.00;68091.63;4991595;28;20190;-83
2021/03/06 07:19:45;;;;;;;11.32;3.67;;;;;;;-143.98;100.00;68091.63;4992890;28;20073;-83
2021/03/06 07:22:12;;;;;;;11.52;3.10;;;;;;;-143.98;100.00;68091.63;4990543;28;20050;-83
2021/03/06 07:24:39;;;;;;;12.70;3.42;;;;;;;-143.98;100.00;68091.63;4990264;28;20268;-83
2021/03/06 07:27:08;;;;;;;17.92;4.00;;;;;;;-143.98;100.00;68091.63;4991933;28;20062;-82
2021/03/06 07:29:36;;;;;;;7.55;3.13;;;;;;;-143.98;100.00;68091.63;4974945;28;20620;-82
2021/03/06 07:32:07;;;;;;;15.68;4.10;;;;;;;-143.98;100.00;68091.63;4991000;28;20064;-82
2021/03/06 07:34:35;;;;;;;6.95;3.50;;;;;;;-143.98;100.00;68091.63;4990707;28;20106;-83
2021/03/06 07:37:04;;;;;;;10.57;4.18;;;;;;;-143.98;100.00;68091.63;4991153;28;20054;-82
2021/03/06 07:39:42;;;;;;;4.68;3.15;;;;;;;-143.98;100.00;68091.63;5007742;28;20058;-82
2021/03/06 07:42:29;;;;;;;19.95;4.10;;;;;;;-143.98;100.00;68091.63;4992756;28;20111;-84
2021/03/06 07:44:58;;;;;;;5.70;2.95;;;;;;;-143.98;100.00;68091.63;4993998;28;20181;-85
2021/03/06 07:47:29;;;;;;;10.68;3.13;;;;;;;-143.98;100.00;68091.63;4989187;28;20058;-83
2021/03/06 07:49:59;;;;;;;8.50;4.03;;;;;;;-143.98;100.00;68091.63;4976567;28;20054;-83
2021/03/06 07:52:26;;;;;;;17.33;4.10;;;;;;;-143.98;100.00;68091.63;4986910;28;20485;-84
2021/03/06 07:54:53;;;;;;;17.50;3.60;;;;;;;-143.98;100.00;68091.63;4975565;28;20074;-84
2021/03/06 07:57:21;;;;;;;14.32;4.30;;;;;;;-143.98;100.00;68091.63;5005530;28;20081;-85
2021/03/06 07:59:55;;;;;;;8.60;4.07;;;;;;;-143.98;100.00;68091.63;5003343;28;20099;-85
2021/03/06 08:02:38;;;;;;;11.80;3.72;;;;;;;-143.98;100.00;68091.63;5002685;28;20064;-85
2021/03/06 08:05:44;;;;;;;14.77;3.97;;;;;;;-143.98;100.00;68091.63;5001608;28;20050;-85
2021/03/06 08:08:33;;;;;;;14.52;4.75;;;;;;;-143.98;100.00;68091.63;5014867;28;20447;-86
2021/03/06 08:11:16;;;;;;;11.10;3.85;;;;;;;-143.98;100.00;68091.63;5007834;28;20155;-86
2021/03/06 08:13:54;;;;;;;14.85;4.20;;;;;;;-143.98;100.00;68091.63;4991020;28;20138;-86
2021/03/06 08:16:21;;;;;;;13.30;4.10;;;;;;;-143.98;100.00;68091.63;4985541;28;20058;-85
2021/03/06 08:18:51;;;;;;;13.63;4.22;;;;;;;-143.98;100.00;68091.63;4991935;28;20056;-85
2021/03/06 08:21:42;;;;;;;12.70;3.00;;;;;;;-143.98;100.00;68091.63;4992531;28;20060;-85
2021/03/06 08:24:11;;;;;;;14.35;3.92;;;;;;;-143.98;100.00;68091.63;4972184;28;20062;-85
2021/03/06 08:26:42;;;;;;;7.80;3.25;;;;;;;-143.98;100.00;68091.63;4993701;28;20382;-84
2021/03/06 08:29:24;;;;;;;9.73;3.38;;;;;;;-143.98;100.00;68091.63;4976811;28;20188;-85
2021/03/06 08:32:06;;;;;;;8.23;3.28;;;;;;;-143.98;100.00;68091.63;5024699;28;20337;-84
2021/03/06 08:34:48;;;;;;;10.45;3.05;;;;;;;-143.98;100.00;68091.63;4990184;28;20058;-84
2021/03/06 08:37:14;;;;;;;5.07;2.72;;;;;;;-143.98;100.00;68091.63;4975972;28;20064;-83
2021/03/06 08:39:49;;;;;;;7.90;3.20;;;;;;;-143.98;100.00;68091.63;4992568;28;20090;-84
2021/03/06 08:42:26;;;;;;;9.43;3.10;;;;;;;-143.98;100.00;68091.63;4992157;28;20097;-83
2021/03/06 08:45:10;;;;;;;11.43;3.15;;;;;;;-143.98;100.00;68091.63;4982937;28;20054;-83
2021/03/06 08:47:57;;;;;;;6.43;3.05;;;;;;;-143.98;100.00;68091.63;5000454;28;20057;-83
2021/03/06 08:50:28;;;;;;;8.05;3.17;;;;;;;-143.98;100.00;68091.63;4999565;28;20398;-82
2021/03/06 08:52:58;;;;;;;6.97;3.28;;;;;;;-143.98;100.00;68091.63;4997121;28;20072;-84
2021/03/06 08:55:33;;;;;;;7.32;2.70;;;;;;;-143.98;100.00;68091.63;5024461;28;20046;-83
2021/03/06 08:58:04;;;;;;;10.13;3.45;;;;;;;-143.98;100.00;68091.63;5007209;28;20159;-83
2021/03/06 09:01:00;;;;;;;7.13;2.58;;;;;;;-143.98;100.00;68091.63;4990118;28;20054;-83
2021/03/06 09:03:28;;;;;;;9.65;4.07;;;;;;;-143.98;100.00;68091.63;5020932;28;20349;-82
2021/03/06 09:05:57;;;;;;;10.85;3.15;;;;;;;-143.98;100.00;68091.63;5021047;28;20072;-83
2021/03/06 09:08:27;;;;;;;10.45;3.28;;;;;;;-143.98;100.00;68091.63;4994435;28;20153;-84
2021/03/06 09:11:05;;;;;;;9.85;3.67;;;;;;;-143.98;100.00;68091.63;4977399;28;20574;-84
2021/03/06 09:13:36;;;;;;;13.20;3.00;;;;;;;-143.98;100.00;68091.63;5058019;28;20057;-84
2021/03/06 09:16:04;;;;;;;7.05;3.45;;;;;;;-143.98;100.00;68091.63;5074413;28;20050;-84
2021/03/06 09:18:35;;;;;;;15.82;2.95;;;;;;;-143.98;100.00;68091.63;4989571;28;20062;-83
2021/03/06 09:21:04;;;;;;;10.90;2.88;;;;;;;-143.98;100.00;68091.63;5071487;28;20046;-84
2021/03/06 09:23:36;;;;;;;12.52;3.33;;;;;;;-143.98;100.00;68091.63;4975322;28;20050;-86
2021/03/06 09:26:16;;;;;;;8.35;3.08;;;;;;;-143.98;100.00;68091.63;5020869;28;20127;-83
2021/03/06 09:28:50;;;;;;;9.68;3.17;;;;;;;-143.98;100.00;68091.63;4990896;28;20097;-84
2021/03/06 09:31:18;;;;;;;8.48;3.28;;;;;;;-143.98;100.00;68091.63;4989680;28;20081;-83
2021/03/06 09:33:51;;;;;;;9.18;3.47;;;;;;;-143.98;100.00;68091.63;4989420;28;20342;-85
2021/03/06 09:36:24;;;;;;;8.70;2.88;;;;;;;-143.98;100.00;68091.63;4991871;28;20123;-85
2021/03/06 09:38:52;;;;;;;7.18;3.38;;;;;;;-143.98;100.00;68091.63;4989929;28;20143;-85
2021/03/06 09:41:30;;;;;;;9.48;3.25;;;;;;;-143.98;100.00;68091.63;5002275;28;20061;-85
2021/03/06 09:44:01;;;;;;;10.55;3.63;;;;;;;-143.98;100.00;68091.63;4991695;28;20054;-85
2021/03/06 09:46:32;;;;;;;8.75;3.38;;;;;;;-143.98;100.00;68091.63;4976342;28;20054;-85
2021/03/06 09:49:46;;;;;;;10.68;3.10;;;;;;;-143.98;100.00;68091.63;4990213;28;20276;-84
2021/03/06 09:52:13;;;;;;;7.30;2.65;;;;;;;-143.98;100.00;68091.63;4991118;28;20077;-84
2021/03/06 09:54:39;;;;;;;5.25;2.38;;;;;;;-143.98;100.00;68091.63;5001649;28;20053;-83
2021/03/06 09:57:08;;;;;;;12.68;2.15;;;;;;;-143.98;100.00;68091.63;4988769;28;20054;-83
2021/03/06 09:59:41;;;;;;;14.80;2.25;;;;;;;-143.98;100.00;68091.63;5002217;28;20061;-83
2021/03/06 10:02:10;;;;;;;9.15;2.75;;;;;;;-143.98;100.00;68091.63;5019210;28;20062;-82
2021/03/06 10:04:38;;;;;;;7.70;2.10;;;;;;;-143.98;100.00;68091.63;5018887;28;20054;-83
2021/03/06 10:07:10;;;;;;;4.45;2.10;;;;;;;-143.98;100.00;68091.63;5018133;28;20229;-83
2021/03/06 10:09:36;;;;;;;11.70;2.28;;;;;;;-143.98;100.00;68091.63;5038708;28;20218;-83
2021/03/06 10:12:07;;;;;;;9.70;2.60;;;;;;;-143.98;100.00;68091.63;5026058;28;20046;-83
2021/03/06 10:14:34;;;;;;;16.25;3.00;;;;;;;-143.98;100.00;68091.63;5027258;28;20356;-82
2021/03/06 10:17:06;;;;;;;8.65;2.28;;;;;;;-143.98;100.00;68091.63;5015761;28;20066;-83
2021/03/06 10:19:46;;;;;;;12.52;2.50;;;;;;;-143.98;100.00;68091.63;5000138;28;20210;-83
2021/03/06 10:22:14;;;;;;;9.60;2.47;;;;;;;-143.98;100.00;68091.63;5008521;28;20131;-83
2021/03/06 10:24:57;;;;;;;6.35;2.25;;;;;;;-143.98;100.00;68091.63;4990189;28;20053;-83
2021/03/06 10:27:48;;;;;;;37.88;5.60;;;;;;;-143.98;100.00;68091.63;4987700;28;20050;-83
2021/03/06 10:30:31;;;;;;;26.85;12.18;;;;;;;-143.98;100.00;68091.63;4972944;28;20160;-83
2021/03/06 10:33:06;;;;;;;11.82;4.05;;;;;;;-143.98;100.00;68091.63;5000628;28;20108;-82
2021/03/06 10:35:44;;;;;;;20.13;2.65;;;;;;;-143.98;100.00;68091.63;4954732;28;20462;-83
2021/03/06 10:38:14;;;;;;;12.73;2.28;;;;;;;-143.98;100.00;68091.63;5001817;28;20226;-82
2021/03/06 10:41:01;;;;;;;17.00;2.40;;;;;;;-143.98;100.00;68091.63;4986945;28;20315;-82
2021/03/06 10:43:40;;;;;;;9.88;2.00;;;;;;;-143.98;100.00;68091.63;4954210;28;20050;-82
2021/03/06 10:46:18;;;;;;;8.00;2.00;;;;;;;-143.98;100.00;68091.63;4994778;28;20051;-82
2021/03/06 10:48:55;;;;;;;9.82;1.63;;;;;;;-143.98;100.00;68091.63;4985102;28;20216;-82
2021/03/06 10:51:43;;;;;;;4.75;2.00;;;;;;;-143.98;100.00;68091.63;4969212;28;20177;-82
2021/03/06 10:54:10;;;;;;;10.30;1.92;;;;;;;-143.98;100.00;68091.63;4986941;28;20092;-82
2021/03/06 10:56:39;;;;;;;8.98;1.40;;;;;;;-143.98;100.00;68091.63;4997008;28;20038;-82
2021/03/06 10:59:09;;;;;;;11.60;1.75;;;;;;;-143.98;100.00;68091.63;4983168;28;20264;-82
2021/03/06 11:01:51;;;;;;;6.63;1.70;;;;;;;-143.98;100.00;68091.63;4982886;28;20071;-82
2021/03/06 11:04:32;;;;;;;5.35;2.08;;;;;;;-143.98;100.00;68091.63;4998203;28;20160;-82
2021/03/06 11:07:06;;;;;;;13.27;2.35;;;;;;;-143.98;100.00;68091.63;5003373;28;20111;-82
2021/03/06 11:09:37;;;;;;;9.77;2.30;;;;;;;-143.98;100.00;68091.63;4994095;28;20049;-83
2021/03/06 11:12:27;;;;;;;4.40;1.80;;;;;;;-143.98;100.00;68091.63;4993406;28;20054;-83
2021/03/06 11:15:16;;;;;;;9.93;2.13;;;;;;;-143.98;100.00;68091.63;4990850;28;20079;-83
2021/03/06 11:17:48;;;;;;;5.63;1.60;;;;;;;-143.98;100.00;68091.63;4974110;28;20330;-83
2021/03/06 11:20:16;;;;;;;4.65;1.52;;;;;;;-143.98;100.00;68091.63;4973829;28;20495;-83
2021/03/06 11:22:45;;;;;;;6.95;1.80;;;;;;;-143.98;100.00;68091.63;4990071;28;20448;-83
2021/03/06 11:25:15;;;;;;;4.93;1.35;;;;;;;-143.98;100.00;68091.63;4970922;28;20050;-83